sensor_id;sensor_type;location;lat;lon;timestamp;pressure;altitude;pressure_sealevel;temperature;humidity
53889;BME280;41337;51.400;-2.342;2023-09-30T00:03:59;102237.38;;;12.59;95.69
53889;BME280;41337;51.400;-2.342;2023-09-30T00:09:01;102252.81;;;12.54;97.15
53889;BME280;41337;51.400;-2.342;2023-09-30T00:14:03;102276.47;;;12.46;95.90
53889;BME280;41337;51.400;-2.342;2023-09-30T00:19:05;102266.34;;;12.31;97.57
53889;BME280;41337;51.400;-2.342;2023-09-30T00:24:06;102273.19;;;12.24;97.78
53889;BME280;41337;51.400;-2.342;2023-09-30T00:29:07;102290.56;;;12.17;99.51
53889;BME280;41337;51.400;-2.342;2023-09-30T00:34:08;102281.66;;;12.18;99.03
53889;BME280;41337;51.400;-2.342;2023-09-30T00:39:09;102263.59;;;12.23;98.90
53889;BME280;41337;51.400;-2.342;2023-09-30T00:44:10;102281.66;;;12.28;98.10
53889;BME280;41337;51.400;-2.342;2023-09-30T00:49:13;102272.09;;;12.17;98.78
53889;BME280;41337;51.400;-2.342;2023-09-30T00:54:15;102258.50;;;12.03;100.00
53889;BME280;41337;51.400;-2.342;2023-09-30T00:59:18;102270.19;;;12.00;100.00
53889;BME280;41337;51.400;-2.342;2023-09-30T01:04:20;102260.00;;;12.05;99.99
53889;BME280;41337;51.400;-2.342;2023-09-30T01:09:21;102261.41;;;12.09;99.49
53889;BME280;41337;51.400;-2.342;2023-09-30T01:14:33;102258.38;;;12.04;99.11
53889;BME280;41337;51.400;-2.342;2023-09-30T01:19:37;102269.19;;;12.01;99.59
53889;BME280;41337;51.400;-2.342;2023-09-30T01:24:41;102265.31;;;11.96;100.00
53889;BME280;41337;51.400;-2.342;2023-09-30T01:29:43;102239.19;;;12.02;100.00
53889;BME280;41337;51.400;-2.342;2023-09-30T01:34:43;102250.59;;;11.93;100.00
53889;BME280;41337;51.400;-2.342;2023-09-30T01:39:44;102232.53;;;11.98;100.00
53889;BME280;41337;51.400;-2.342;2023-09-30T01:44:46;102230.44;;;12.02;100.00
53889;BME280;41337;51.400;-2.342;2023-09-30T01:49:46;102232.94;;;12.03;99.94
53889;BME280;41337;51.400;-2.342;2023-09-30T01:54:47;102227.97;;;11.90;100.00
53889;BME280;41337;51.400;-2.342;2023-09-30T01:59:48;102221.44;;;11.75;100.00
53889;BME280;41337;51.400;-2.342;2023-09-30T02:04:49;102229.06;;;11.69;100.00
53889;BME280;41337;51.400;-2.342;2023-09-30T02:09:50;102224.19;;;11.64;100.00
53889;BME280;41337;51.400;-2.342;2023-09-30T02:14:51;102224.91;;;11.57;100.00
53889;BME280;41337;51.400;-2.342;2023-09-30T02:19:52;102230.47;;;11.54;100.00
53889;BME280;41337;51.400;-2.342;2023-09-30T02:24:54;102227.81;;;11.54;100.00
53889;BME280;41337;51.400;-2.342;2023-09-30T02:29:55;102221.69;;;11.43;100.00
53889;BME280;41337;51.400;-2.342;2023-09-30T02:34:57;102216.84;;;11.39;100.00
53889;BME280;41337;51.400;-2.342;2023-09-30T02:45:01;102223.22;;;11.36;100.00
53889;BME280;41337;51.400;-2.342;2023-09-30T02:50:04;102239.72;;;11.29;100.00
53889;BME280;41337;51.400;-2.342;2023-09-30T02:55:05;102236.25;;;11.28;100.00
53889;BME280;41337;51.400;-2.342;2023-09-30T03:00:09;102222.81;;;11.31;100.00
53889;BME280;41337;51.400;-2.342;2023-09-30T03:05:24;102231.25;;;11.35;100.00
53889;BME280;41337;51.400;-2.342;2023-09-30T03:10:25;102217.25;;;11.34;100.00
53889;BME280;41337;51.400;-2.342;2023-09-30T03:15:30;102192.69;;;11.34;100.00
53889;BME280;41337;51.400;-2.342;2023-09-30T03:20:31;102188.13;;;11.36;100.00
53889;BME280;41337;51.400;-2.342;2023-09-30T03:25:32;102180.50;;;11.33;100.00
53889;BME280;41337;51.400;-2.342;2023-09-30T03:30:33;102168.72;;;11.27;100.00
53889;BME280;41337;51.400;-2.342;2023-09-30T03:35:36;102159.00;;;11.18;100.00
53889;BME280;41337;51.400;-2.342;2023-09-30T03:40:37;102149.13;;;11.20;100.00
53889;BME280;41337;51.400;-2.342;2023-09-30T03:45:39;102153.56;;;11.29;100.00
53889;BME280;41337;51.400;-2.342;2023-09-30T03:50:40;102156.78;;;11.23;100.00
53889;BME280;41337;51.400;-2.342;2023-09-30T03:55:40;102182.59;;;11.20;100.00
53889;BME280;41337;51.400;-2.342;2023-09-30T04:00:42;102188.25;;;11.25;100.00
53889;BME280;41337;51.400;-2.342;2023-09-30T04:05:43;102187.59;;;11.32;100.00
53889;BME280;41337;51.400;-2.342;2023-09-30T04:10:44;102166.50;;;11.32;100.00
53889;BME280;41337;51.400;-2.342;2023-09-30T04:15:45;102168.00;;;11.35;100.00
53889;BME280;41337;51.400;-2.342;2023-09-30T04:20:47;102171.63;;;11.24;100.00
53889;BME280;41337;51.400;-2.342;2023-09-30T04:25:48;102168.72;;;11.27;100.00
53889;BME280;41337;51.400;-2.342;2023-09-30T04:30:50;102173.97;;;11.27;100.00
53889;BME280;41337;51.400;-2.342;2023-09-30T04:35:51;102173.56;;;11.32;100.00
53889;BME280;41337;51.400;-2.342;2023-09-30T04:40:53;102154.97;;;11.24;100.00
53889;BME280;41337;51.400;-2.342;2023-09-30T04:45:55;102130.84;;;11.28;100.00
53889;BME280;41337;51.400;-2.342;2023-09-30T04:50:57;102150.66;;;11.42;100.00
53889;BME280;41337;51.400;-2.342;2023-09-30T04:55:58;102156.78;;;11.23;100.00
53889;BME280;41337;51.400;-2.342;2023-09-30T05:00:59;102150.81;;;11.02;100.00
53889;BME280;41337;51.400;-2.342;2023-09-30T05:06:00;102144.16;;;10.98;100.00
53889;BME280;41337;51.400;-2.342;2023-09-30T05:11:01;102161.19;;;10.94;100.00
53889;BME280;41337;51.400;-2.342;2023-09-30T05:16:02;102153.69;;;10.99;100.00
53889;BME280;41337;51.400;-2.342;2023-09-30T05:21:07;102166.19;;;10.97;100.00
53889;BME280;41337;51.400;-2.342;2023-09-30T05:26:08;102165.06;;;10.90;100.00
53889;BME280;41337;51.400;-2.342;2023-09-30T05:31:09;102176.97;;;10.84;100.00
53889;BME280;41337;51.400;-2.342;2023-09-30T05:36:10;102168.94;;;10.86;100.00
53889;BME280;41337;51.400;-2.342;2023-09-30T05:41:10;102181.56;;;10.92;100.00
53889;BME280;41337;51.400;-2.342;2023-09-30T05:46:14;102177.66;;;10.77;100.00
53889;BME280;41337;51.400;-2.342;2023-09-30T05:51:15;102191.56;;;10.58;100.00
53889;BME280;41337;51.400;-2.342;2023-09-30T05:56:17;102173.81;;;10.50;100.00
53889;BME280;41337;51.400;-2.342;2023-09-30T06:01:18;102180.88;;;10.50;100.00
53889;BME280;41337;51.400;-2.342;2023-09-30T06:06:19;102159.38;;;10.45;100.00
53889;BME280;41337;51.400;-2.342;2023-09-30T06:11:21;102175.03;;;10.46;100.00
53889;BME280;41337;51.400;-2.342;2023-09-30T06:16:25;102173.38;;;10.45;100.00
53889;BME280;41337;51.400;-2.342;2023-09-30T06:21:26;102181.81;;;10.39;100.00
53889;BME280;41337;51.400;-2.342;2023-09-30T06:26:29;102203.22;;;10.25;100.00
53889;BME280;41337;51.400;-2.342;2023-09-30T06:31:30;102203.88;;;10.18;100.00
53889;BME280;41337;51.400;-2.342;2023-09-30T06:36:31;102215.69;;;10.12;100.00
53889;BME280;41337;51.400;-2.342;2023-09-30T06:41:33;102210.69;;;10.09;100.00
53889;BME280;41337;51.400;-2.342;2023-09-30T06:46:34;102197.28;;;10.12;100.00
53889;BME280;41337;51.400;-2.342;2023-09-30T06:51:34;102196.94;;;10.17;100.00
53889;BME280;41337;51.400;-2.342;2023-09-30T06:56:35;102211.59;;;10.19;100.00
53889;BME280;41337;51.400;-2.342;2023-09-30T07:01:36;102205.28;;;10.10;100.00
53889;BME280;41337;51.400;-2.342;2023-09-30T07:06:37;102204.94;;;10.15;100.00
53889;BME280;41337;51.400;-2.342;2023-09-30T07:11:38;102200.97;;;10.21;100.00
53889;BME280;41337;51.400;-2.342;2023-09-30T07:16:39;102227.44;;;10.29;100.00
53889;BME280;41337;51.400;-2.342;2023-09-30T07:21:41;102222.75;;;10.32;100.00
53889;BME280;41337;51.400;-2.342;2023-09-30T07:26:42;102218.00;;;10.47;100.00
53889;BME280;41337;51.400;-2.342;2023-09-30T07:31:43;102220.03;;;10.74;100.00
53889;BME280;41337;51.400;-2.342;2023-09-30T07:36:44;102211.94;;;11.06;100.00
53889;BME280;41337;51.400;-2.342;2023-09-30T07:41:45;102194.50;;;11.43;100.00
53889;BME280;41337;51.400;-2.342;2023-09-30T07:46:46;102202.72;;;11.78;100.00
53889;BME280;41337;51.400;-2.342;2023-09-30T07:51:47;102215.56;;;12.10;100.00
53889;BME280;41337;51.400;-2.342;2023-09-30T07:56:48;102215.34;;;12.41;100.00
53889;BME280;41337;51.400;-2.342;2023-09-30T08:01:49;102207.78;;;12.55;100.00
53889;BME280;41337;51.400;-2.342;2023-09-30T08:06:50;102231.91;;;12.70;100.00
53889;BME280;41337;51.400;-2.342;2023-09-30T08:11:54;102219.59;;;12.88;100.00
53889;BME280;41337;51.400;-2.342;2023-09-30T08:16:55;102221.13;;;13.08;100.00
53889;BME280;41337;51.400;-2.342;2023-09-30T08:21:56;102233.03;;;13.22;100.00
53889;BME280;41337;51.400;-2.342;2023-09-30T08:26:57;102219.31;;;13.36;100.00
53889;BME280;41337;51.400;-2.342;2023-09-30T08:31:58;102213.34;;;13.52;99.32
53889;BME280;41337;51.400;-2.342;2023-09-30T08:36:59;102218.69;;;13.60;98.09
53889;BME280;41337;51.400;-2.342;2023-09-30T08:42:01;102212.25;;;13.80;98.06
53889;BME280;41337;51.400;-2.342;2023-09-30T08:47:02;102223.03;;;14.04;96.42
53889;BME280;41337;51.400;-2.342;2023-09-30T08:52:05;102203.06;;;14.18;94.10
53889;BME280;41337;51.400;-2.342;2023-09-30T08:57:09;102226.34;;;14.32;94.02
53889;BME280;41337;51.400;-2.342;2023-09-30T09:02:10;102214.66;;;14.43;93.73
53889;BME280;41337;51.400;-2.342;2023-09-30T09:07:11;102230.81;;;14.57;92.90
53889;BME280;41337;51.400;-2.342;2023-09-30T09:12:21;102218.94;;;14.70;92.57
53889;BME280;41337;51.400;-2.342;2023-09-30T09:17:22;102198.84;;;15.01;91.89
53889;BME280;41337;51.400;-2.342;2023-09-30T09:22:23;102201.38;;;15.27;90.55
53889;BME280;41337;51.400;-2.342;2023-09-30T09:27:24;102191.63;;;15.43;89.08
53889;BME280;41337;51.400;-2.342;2023-09-30T09:32:25;102184.69;;;15.67;88.76
53889;BME280;41337;51.400;-2.342;2023-09-30T09:37:26;102183.47;;;16.02;88.20
53889;BME280;41337;51.400;-2.342;2023-09-30T09:42:29;102178.28;;;16.24;85.19
53889;BME280;41337;51.400;-2.342;2023-09-30T09:47:31;102172.53;;;16.60;85.93
53889;BME280;41337;51.400;-2.342;2023-09-30T09:52:34;102162.81;;;17.06;83.90
53889;BME280;41337;51.400;-2.342;2023-09-30T09:57:36;102151.41;;;17.43;80.12
53889;BME280;41337;51.400;-2.342;2023-09-30T10:02:42;102136.19;;;17.51;79.08
53889;BME280;41337;51.400;-2.342;2023-09-30T10:12:44;102160.34;;;17.27;78.31
53889;BME280;41337;51.400;-2.342;2023-09-30T10:17:57;102143.84;;;17.09;81.60
53889;BME280;41337;51.400;-2.342;2023-09-30T10:39:03;102124.25;;;17.47;79.44
53889;BME280;41337;51.400;-2.342;2023-09-30T10:44:37;102113.78;;;17.46;77.89
53889;BME280;41337;51.400;-2.342;2023-09-30T10:49:39;102114.44;;;17.25;77.70
53889;BME280;41337;51.400;-2.342;2023-09-30T10:54:41;102110.34;;;17.37;77.34
53889;BME280;41337;51.400;-2.342;2023-09-30T10:59:43;102108.34;;;17.76;76.33
53889;BME280;41337;51.400;-2.342;2023-09-30T11:04:47;102107.63;;;18.12;72.87
53889;BME280;41337;51.400;-2.342;2023-09-30T11:09:48;102108.22;;;18.43;73.43
53889;BME280;41337;51.400;-2.342;2023-09-30T11:14:59;102101.56;;;18.68;70.43
53889;BME280;41337;51.400;-2.342;2023-09-30T11:20:00;102121.53;;;18.94;68.05
53889;BME280;41337;51.400;-2.342;2023-09-30T11:25:01;102117.34;;;18.34;64.70
53889;BME280;41337;51.400;-2.342;2023-09-30T11:30:02;102094.94;;;18.29;66.89
53889;BME280;41337;51.400;-2.342;2023-09-30T11:35:25;102092.38;;;18.06;68.82
53889;BME280;41337;51.400;-2.342;2023-09-30T11:40:25;102094.94;;;18.14;68.29
53889;BME280;41337;51.400;-2.342;2023-09-30T11:45:26;102092.75;;;18.03;66.08
53889;BME280;41337;51.400;-2.342;2023-09-30T11:50:48;102089.25;;;17.88;67.03
53889;BME280;41337;51.400;-2.342;2023-09-30T11:55:48;102078.69;;;17.65;67.39
53889;BME280;41337;51.400;-2.342;2023-09-30T12:00:49;102077.34;;;17.46;69.91
53889;BME280;41337;51.400;-2.342;2023-09-30T12:05:55;102067.22;;;17.27;70.74
53889;BME280;41337;51.400;-2.342;2023-09-30T12:10:56;102071.50;;;17.28;70.97
53889;BME280;41337;51.400;-2.342;2023-09-30T12:15:57;102061.31;;;17.17;72.54
53889;BME280;41337;51.400;-2.342;2023-09-30T12:20:58;102057.59;;;17.26;73.16
53889;BME280;41337;51.400;-2.342;2023-09-30T12:25:59;102046.13;;;17.40;70.00
53889;BME280;41337;51.400;-2.342;2023-09-30T12:31:00;102028.97;;;17.57;71.01
53889;BME280;41337;51.400;-2.342;2023-09-30T12:36:05;102041.13;;;17.74;68.85
53889;BME280;41337;51.400;-2.342;2023-09-30T12:41:06;102041.59;;;17.63;67.74
53889;BME280;41337;51.400;-2.342;2023-09-30T12:46:06;102039.47;;;17.88;66.47
53889;BME280;41337;51.400;-2.342;2023-09-30T12:51:07;102019.63;;;18.05;66.38
53889;BME280;41337;51.400;-2.342;2023-09-30T12:56:10;102012.66;;;18.40;64.70
53889;BME280;41337;51.400;-2.342;2023-09-30T13:01:11;101999.50;;;18.53;63.50
53889;BME280;41337;51.400;-2.342;2023-09-30T13:06:15;101997.09;;;18.80;61.94
53889;BME280;41337;51.400;-2.342;2023-09-30T13:11:17;102000.94;;;18.77;62.05
53889;BME280;41337;51.400;-2.342;2023-09-30T13:16:18;101991.84;;;18.71;61.19
53889;BME280;41337;51.400;-2.342;2023-09-30T13:21:19;101981.13;;;18.65;62.18
53889;BME280;41337;51.400;-2.342;2023-09-30T13:26:20;101983.28;;;18.55;62.37
53889;BME280;41337;51.400;-2.342;2023-09-30T13:31:21;101981.34;;;18.27;62.40
53889;BME280;41337;51.400;-2.342;2023-09-30T13:36:24;101978.56;;;18.36;63.91
53889;BME280;41337;51.400;-2.342;2023-09-30T13:41:25;101974.75;;;18.23;64.54
53889;BME280;41337;51.400;-2.342;2023-09-30T13:46:26;101973.97;;;18.30;64.69
53889;BME280;41337;51.400;-2.342;2023-09-30T13:51:28;101972.00;;;18.17;65.28
53889;BME280;41337;51.400;-2.342;2023-09-30T13:56:30;101966.81;;;18.30;65.83
53889;BME280;41337;51.400;-2.342;2023-09-30T14:01:30;101958.94;;;18.43;66.03
53889;BME280;41337;51.400;-2.342;2023-09-30T14:06:33;101958.06;;;18.36;65.78
53889;BME280;41337;51.400;-2.342;2023-09-30T14:11:33;101937.59;;;18.37;66.16
53889;BME280;41337;51.400;-2.342;2023-09-30T14:16:37;101941.28;;;18.21;67.56
53889;BME280;41337;51.400;-2.342;2023-09-30T14:21:38;101927.53;;;18.17;67.80
53889;BME280;41337;51.400;-2.342;2023-09-30T14:26:39;101922.16;;;18.11;69.19
53889;BME280;41337;51.400;-2.342;2023-09-30T14:31:40;101922.78;;;18.13;68.30
53889;BME280;41337;51.400;-2.342;2023-09-30T14:36:40;101923.72;;;18.05;67.99
53889;BME280;41337;51.400;-2.342;2023-09-30T14:41:43;101918.69;;;17.96;69.21
53889;BME280;41337;51.400;-2.342;2023-09-30T14:46:44;101929.19;;;17.83;69.95
53889;BME280;41337;51.400;-2.342;2023-09-30T14:51:45;101929.00;;;17.84;70.48
53889;BME280;41337;51.400;-2.342;2023-09-30T14:56:49;101930.22;;;17.82;71.19
53889;BME280;41337;51.400;-2.342;2023-09-30T15:01:50;101915.75;;;17.69;72.60
53889;BME280;41337;51.400;-2.342;2023-09-30T15:06:54;101901.09;;;17.80;71.87
53889;BME280;41337;51.400;-2.342;2023-09-30T15:11:55;101888.50;;;17.89;70.98
53889;BME280;41337;51.400;-2.342;2023-09-30T15:16:59;101885.66;;;17.90;71.47
53889;BME280;41337;51.400;-2.342;2023-09-30T15:22:03;101867.31;;;17.80;70.72
53889;BME280;41337;51.400;-2.342;2023-09-30T15:27:03;101848.28;;;17.84;71.18
53889;BME280;41337;51.400;-2.342;2023-09-30T15:32:04;101851.41;;;17.87;71.28
53889;BME280;41337;51.400;-2.342;2023-09-30T15:37:06;101852.53;;;18.20;69.38
53889;BME280;41337;51.400;-2.342;2023-09-30T15:42:08;101839.00;;;18.15;70.56
53889;BME280;41337;51.400;-2.342;2023-09-30T15:47:09;101842.28;;;18.17;70.65
53889;BME280;41337;51.400;-2.342;2023-09-30T15:52:10;101825.09;;;17.99;70.41
53889;BME280;41337;51.400;-2.342;2023-09-30T15:57:12;101822.94;;;18.09;70.44
53889;BME280;41337;51.400;-2.342;2023-09-30T16:02:15;101824.41;;;18.11;70.70
53889;BME280;41337;51.400;-2.342;2023-09-30T16:07:16;101819.13;;;17.97;70.77
53889;BME280;41337;51.400;-2.342;2023-09-30T16:12:17;101804.03;;;17.83;71.52
53889;BME280;41337;51.400;-2.342;2023-09-30T16:17:18;101800.03;;;17.72;72.19
53889;BME280;41337;51.400;-2.342;2023-09-30T16:22:22;101799.28;;;17.78;71.94
53889;BME280;41337;51.400;-2.342;2023-09-30T16:27:26;101820.28;;;17.88;73.07
53889;BME280;41337;51.400;-2.342;2023-09-30T16:32:28;101823.88;;;17.80;73.06
53889;BME280;41337;51.400;-2.342;2023-09-30T16:37:32;101830.66;;;17.83;73.21
53889;BME280;41337;51.400;-2.342;2023-09-30T16:42:34;101828.66;;;17.85;71.73
53889;BME280;41337;51.400;-2.342;2023-09-30T16:47:35;101820.47;;;17.65;72.53
53889;BME280;41337;51.400;-2.342;2023-09-30T16:52:37;101819.53;;;17.58;72.40
53889;BME280;41337;51.400;-2.342;2023-09-30T16:57:38;101825.16;;;17.48;72.50
53889;BME280;41337;51.400;-2.342;2023-09-30T17:02:38;101823.84;;;17.44;72.33
53889;BME280;41337;51.400;-2.342;2023-09-30T17:07:39;101840.41;;;17.40;73.77
53889;BME280;41337;51.400;-2.342;2023-09-30T17:12:40;101823.34;;;17.34;73.75
53889;BME280;41337;51.400;-2.342;2023-09-30T17:17:44;101824.25;;;17.41;74.04
53889;BME280;41337;51.400;-2.342;2023-09-30T17:22:45;101810.50;;;17.38;74.70
53889;BME280;41337;51.400;-2.342;2023-09-30T17:27:47;101801.78;;;17.29;75.34
53889;BME280;41337;51.400;-2.342;2023-09-30T17:32:49;101798.13;;;17.30;75.94
53889;BME280;41337;51.400;-2.342;2023-09-30T17:37:53;101806.22;;;17.22;76.67
53889;BME280;41337;51.400;-2.342;2023-09-30T17:42:55;101812.53;;;17.06;77.14
53889;BME280;41337;51.400;-2.342;2023-09-30T17:47:56;101809.44;;;17.03;77.97
53889;BME280;41337;51.400;-2.342;2023-09-30T17:52:57;101815.59;;;17.03;78.41
53889;BME280;41337;51.400;-2.342;2023-09-30T17:57:59;101810.53;;;16.94;79.83
53889;BME280;41337;51.400;-2.342;2023-09-30T18:03:01;101815.50;;;16.97;79.78
53889;BME280;41337;51.400;-2.342;2023-09-30T18:08:03;101811.00;;;16.97;80.79
53889;BME280;41337;51.400;-2.342;2023-09-30T18:13:05;101817.50;;;16.95;81.05
53889;BME280;41337;51.400;-2.342;2023-09-30T18:18:08;101808.72;;;16.79;82.49
53889;BME280;41337;51.400;-2.342;2023-09-30T18:23:09;101808.34;;;16.82;83.19
53889;BME280;41337;51.400;-2.342;2023-09-30T18:28:11;101808.88;;;16.78;84.21
53889;BME280;41337;51.400;-2.342;2023-09-30T18:33:13;101809.63;;;16.86;84.46
53889;BME280;41337;51.400;-2.342;2023-09-30T18:38:16;101801.28;;;16.75;86.31
53889;BME280;41337;51.400;-2.342;2023-09-30T18:43:17;101809.81;;;16.85;86.12
53889;BME280;41337;51.400;-2.342;2023-09-30T18:48:22;101820.25;;;16.86;87.12
53889;BME280;41337;51.400;-2.342;2023-09-30T18:53:26;101819.44;;;16.86;87.71
53889;BME280;41337;51.400;-2.342;2023-09-30T18:58:32;101809.63;;;16.86;88.30
53889;BME280;41337;51.400;-2.342;2023-09-30T19:03:37;101808.34;;;16.82;89.10
53889;BME280;41337;51.400;-2.342;2023-09-30T19:08:39;101816.69;;;16.79;89.59
53889;BME280;41337;51.400;-2.342;2023-09-30T19:13:40;101808.16;;;16.69;91.76
53889;BME280;41337;51.400;-2.342;2023-09-30T19:18:41;101802.00;;;16.69;92.83
53889;BME280;41337;51.400;-2.342;2023-09-30T19:23:42;101805.88;;;16.66;93.27
53889;BME280;41337;51.400;-2.342;2023-09-30T19:28:43;101803.28;;;16.73;94.31
53889;BME280;41337;51.400;-2.342;2023-09-30T19:33:44;101811.34;;;16.65;95.16
53889;BME280;41337;51.400;-2.342;2023-09-30T19:38:46;101803.09;;;16.60;96.08
53889;BME280;41337;51.400;-2.342;2023-09-30T19:43:48;101802.28;;;16.59;97.61
53889;BME280;41337;51.400;-2.342;2023-09-30T19:48:49;101799.94;;;16.56;98.43
53889;BME280;41337;51.400;-2.342;2023-09-30T19:53:51;101810.94;;;16.53;99.42
53889;BME280;41337;51.400;-2.342;2023-09-30T19:58:52;101814.59;;;16.52;100.00
53889;BME280;41337;51.400;-2.342;2023-09-30T20:03:52;101815.91;;;16.56;100.00
53889;BME280;41337;51.400;-2.342;2023-09-30T20:09:00;101817.41;;;16.59;100.00
53889;BME280;41337;51.400;-2.342;2023-09-30T20:14:01;101799.06;;;16.64;100.00
53889;BME280;41337;51.400;-2.342;2023-09-30T20:19:02;101807.59;;;16.74;100.00
53889;BME280;41337;51.400;-2.342;2023-09-30T20:24:05;101809.44;;;16.73;100.00
53889;BME280;41337;51.400;-2.342;2023-09-30T20:29:06;101809.44;;;16.73;100.00
53889;BME280;41337;51.400;-2.342;2023-09-30T20:34:07;101799.66;;;16.88;100.00
53889;BME280;41337;51.400;-2.342;2023-09-30T20:39:08;101794.88;;;16.84;100.00
53889;BME280;41337;51.400;-2.342;2023-09-30T20:44:11;101796.63;;;16.92;100.00
53889;BME280;41337;51.400;-2.342;2023-09-30T20:49:13;101801.00;;;16.99;100.00
53889;BME280;41337;51.400;-2.342;2023-09-30T20:54:14;101801.28;;;17.04;100.00
53889;BME280;41337;51.400;-2.342;2023-09-30T20:59:14;101784.13;;;17.07;100.00
53889;BME280;41337;51.400;-2.342;2023-09-30T21:04:15;101783.38;;;17.13;99.95
53889;BME280;41337;51.400;-2.342;2023-09-30T21:09:16;101783.84;;;17.16;99.93
53889;BME280;41337;51.400;-2.342;2023-09-30T21:14:18;101774.41;;;17.14;100.00
53889;BME280;41337;51.400;-2.342;2023-09-30T21:19:20;101760.72;;;17.17;100.00
53889;BME280;41337;51.400;-2.342;2023-09-30T21:24:41;101756.22;;;17.17;100.00
53889;BME280;41337;51.400;-2.342;2023-09-30T21:29:43;101767.50;;;17.19;100.00
53889;BME280;41337;51.400;-2.342;2023-09-30T21:34:48;101765.88;;;17.18;100.00
53889;BME280;41337;51.400;-2.342;2023-09-30T21:39:48;101758.59;;;17.27;100.00
53889;BME280;41337;51.400;-2.342;2023-09-30T21:44:49;101757.28;;;17.23;100.00
53889;BME280;41337;51.400;-2.342;2023-09-30T21:49:50;101754.06;;;17.27;100.00
53889;BME280;41337;51.400;-2.342;2023-09-30T21:54:51;101748.31;;;17.24;100.00
53889;BME280;41337;51.400;-2.342;2023-09-30T21:59:52;101740.59;;;17.29;100.00
53889;BME280;41337;51.400;-2.342;2023-09-30T22:04:54;101745.97;;;17.35;100.00
53889;BME280;41337;51.400;-2.342;2023-09-30T22:09:56;101754.16;;;17.34;100.00
53889;BME280;41337;51.400;-2.342;2023-09-30T22:14:57;101751.56;;;17.41;100.00
53889;BME280;41337;51.400;-2.342;2023-09-30T22:19:57;101744.97;;;17.36;100.00
53889;BME280;41337;51.400;-2.342;2023-09-30T22:24:59;101755.44;;;17.38;100.00
53889;BME280;41337;51.400;-2.342;2023-09-30T22:30:00;101764.69;;;17.42;100.00
53889;BME280;41337;51.400;-2.342;2023-09-30T22:35:01;101753.59;;;17.39;100.00
53889;BME280;41337;51.400;-2.342;2023-09-30T22:40:03;101757.00;;;17.32;100.00
53889;BME280;41337;51.400;-2.342;2023-09-30T22:45:04;101765.63;;;17.34;100.00
53889;BME280;41337;51.400;-2.342;2023-09-30T22:50:06;101754.06;;;17.27;100.00
53889;BME280;41337;51.400;-2.342;2023-09-30T22:55:18;101748.84;;;17.34;100.00
53889;BME280;41337;51.400;-2.342;2023-09-30T23:00:19;101743.56;;;17.41;100.00
53889;BME280;41337;51.400;-2.342;2023-09-30T23:05:33;101747.19;;;17.33;100.00
53889;BME280;41337;51.400;-2.342;2023-09-30T23:10:34;101741.88;;;17.33;100.00
53889;BME280;41337;51.400;-2.342;2023-09-30T23:15:35;101749.84;;;17.33;100.00
53889;BME280;41337;51.400;-2.342;2023-09-30T23:20:36;101752.13;;;17.36;100.00
53889;BME280;41337;51.400;-2.342;2023-09-30T23:25:39;101751.88;;;17.31;100.00
53889;BME280;41337;51.400;-2.342;2023-09-30T23:30:40;101750.69;;;17.33;100.00
53889;BME280;41337;51.400;-2.342;2023-09-30T23:35:41;101751.88;;;17.31;100.00
53889;BME280;41337;51.400;-2.342;2023-09-30T23:40:42;101753.91;;;17.29;100.00
53889;BME280;41337;51.400;-2.342;2023-09-30T23:45:43;101744.53;;;17.33;100.00
53889;BME280;41337;51.400;-2.342;2023-09-30T23:50:48;101728.75;;;17.31;100.00
53889;BME280;41337;51.400;-2.342;2023-09-30T23:55:54;101741.25;;;17.31;100.00
